TNCB Airport Information

Runway Information
Runway 10 Length 9449 ft width 148 ft
Elevation 14 ft Threshold 0 ft Heading 92
Runway 28 Length 9449 ft Width 148 ft
Elevation 20 ft Threshold 0 ft Heading 272
Airport Frequencies
Type TWR Name TWR Frequency 118.7 MHZ
Airport Navaids
Type NDB Name Bonaire Frequency 321 KHZ
Airport Weather Information & NOTAM
ADDS - METARS form results

(0227 UTC 20 January 2019)
Data provider http://aviationweather.gov/metar/data/
 
METAR text: TNCB 200155Z AUTO 09014KT 9999 FEW021/// 26/21 Q1014
Conditions at: TNCB (BONAIRE/FLAMINGO, AN) observed 0155 UTC 20 January 2019
Temperature: 26.0°C (79°F)
Dewpoint: 21.0°C (70°F) [RH = 74%]
Pressure (altimeter): 29.94 inches Hg (1014.0 mb)
Winds: from the E (90 degrees) at 16 MPH (14 knots; 7.2 m/s)
Visibility: 6 or more miles (10+ km)
Ceiling: at least 12,000 feet AGL
Clouds: few clouds at 2100 feet AGL
Weather: no significant weather observed at this time

Forecast for: TNCB (BONAIRE/FLAMINGO, AN)
Text: TAF TNCB 192258Z 2000/2106 09017KT 9999 SCT025
Forecast period: 0000 UTC 20 January 2019 to 0600 UTC 21 January 2019
Forecast type: FROM: standard forecast or significant change
Winds: from the E (90 degrees) at 20 MPH (17 knots; 8.7 m/s)
Visibility: 6 or more miles 10+ km)
Ceiling: at least 12,000 feet AGL
Clouds: scattered clouds at 2500 feet AGL
Weather: no significant weather forecast for this period